Gradyville, KY (42742)

4:43 PM CDT on July 24, 2014 (GMT -0500)
KKYCOLUM2 Elev 1033 ft | 37.03 °N, 85.39 °W | Change Station

Current weather conditions updated 13 seconds ago

Mostly Cloudy
Mostly Cloudy
75.7 °F
Feels Like 78 °F
N
6.0
Wind Variable Wind from North
Gusts 11.0 mph

Tomorrow is forecast to be Warmer than today.

Today
High -- | Low -- °F
--% Chance of Precip.
Yesterday
High -- | Low -- °F
Precip. -- in
5:40 AM 7:55 PM
Waning Crescent, 4% visible
Pressure 30.00 in
Visibility 10.0 miles
Clouds Scattered Clouds 6000 ft
Heat Index 78 °F
Dew Point 63 °F
Humidity 64%
Rainfall 0.00 in
Snow Depth Not available.
UV 1.3 out of 12
Pollen 3.40 out of 12
Air Quality Not available.
Flu Activity Not available.
METAR KGLW 242135Z AUTO 07007KT 10SM SCT060 27/12 A3000 RMK AO2 T02740123

More Conditions Fewer Conditions

Pressure 30.00 in
Visibility 10.0 miles
Clouds Scattered Clouds 6000 ft
Heat Index 78 °F
Dew Point 63 °F
Humidity 64%
Rainfall 0.00 in
Snow Depth Not available.
UV 1.3 out of 12
Pollen 3.40 out of 12
Air Quality Not available.
Flu Activity Not available.
METAR KGLW 242135Z AUTO 07007KT 10SM SCT060 27/12 A3000 RMK AO2 T02740123

More Conditions Fewer Conditions

10-Day Weather Forecast

Almanac

Astronomy

Jul. 24, 2014 Rise Set
Actual Time 5:40 AM CDT 7:55 PM CDT
Civil Twilight 5:11 AM CDT 8:24 PM CDT
Nautical Twilight 4:34 AM CDT 9:00 PM CDT
Astronomical Twilight 3:55 AM CDT 9:40 PM CDT
Moon 3:47 AM CDT 6:10 PM CDT
Length of Visible Light 15h 13m
Length of Day
14h 15m
Tomorrow will be 1m 33s shorter.
Waning Crescent, 4% of the Moon is Illuminated
Today
Waning Crescent
Jul 26
New
Aug 3
First Quarter
Aug 10
Full
Aug 17
Last Quarter

Today's Extremes

State Highs State Lows

Community

WunderPhotos

Upload Photos

1,737,139 photos uploaded!

WunderBlogs® & News

Nearby

Snow Depth

Station Depth Elevation
No new snow has been reported.

Earthquake Activity

City Distance Mag. Time & Date
No recent earthquake activity has been reported nearby.
Minimum magnitude displayed is 2.5.

Coastal Water Temperatures

Place Temperature
No Stations Reporting

Nearby Weather Stations

Station Location Temp. Heat Index Dew Point Humidity Wind Precip. Elev Updated Type
Columbia, KY 75.7 °F 78 °F 63 °F 64% North  at  6.0 mph 0.00 in / hr 1033 ft 4:43 PM CDT Rapid Fire
Redman Avenue, Campbellsville, KY 78.2 °F 80 °F 61 °F 55% NNW  at  1.5 mph 0.00 in / hr 837 ft 5:43 PM EDT Rapid Fire
Balcony Bend, Jamestown, KY 74.6 °F 76 °F 64 °F 69% East  at  0.0 mph 0.00 in / hr 817 ft 4:40 PM CDT Normal
Rex KY in Hart County, Hardyville, KY 79.8 °F 81 °F 63 °F 57% North  at  0.0 mph 0.00 in / hr 721 ft 4:42 PM CDT Rapid Fire
Center Point Ky, Tompkinsville, KY 86.4 °F 91 °F 69 °F 57% North  at  1.7 mph - / hr 740 ft 4:32 PM CDT Normal
Cave City, KY 80.1 °F 81 °F 63 °F 56% NW  at  0.2 mph 0.00 in / hr 695 ft 4:43 PM CDT Rapid Fire

Show More Stations Show Fewer Stations